sensor_id;sensor_type;location;lat;lon;timestamp;pressure;altitude;pressure_sealevel;temperature;humidity
61086;BME280;46967;48.876;2.136;2022-08-19T00:01:13;101411.53;;;19.84;71.90
61086;BME280;46967;48.876;2.136;2022-08-19T00:03:39;101416.69;;;19.85;71.98
61086;BME280;46967;48.876;2.136;2022-08-19T00:06:04;101419.25;;;19.87;71.58
61086;BME280;46967;48.876;2.136;2022-08-19T00:08:29;101416.50;;;19.88;71.45
61086;BME280;46967;48.876;2.136;2022-08-19T00:10:55;101414.16;;;19.84;71.42
61086;BME280;46967;48.876;2.136;2022-08-19T00:13:21;101421.22;;;19.83;71.31
61086;BME280;46967;48.876;2.136;2022-08-19T00:15:46;101419.09;;;19.74;72.29
61086;BME280;46967;48.876;2.136;2022-08-19T00:18:11;101421.25;;;19.67;73.05
61086;BME280;46967;48.876;2.136;2022-08-19T00:20:37;101422.06;;;19.68;72.59
61086;BME280;46967;48.876;2.136;2022-08-19T00:23:06;101429.13;;;19.67;72.59
61086;BME280;46967;48.876;2.136;2022-08-19T00:25:32;101427.78;;;19.60;72.77
61086;BME280;46967;48.876;2.136;2022-08-19T00:27:58;101417.56;;;19.55;73.52
61086;BME280;46967;48.876;2.136;2022-08-19T00:30:24;101431.81;;;19.51;73.19
61086;BME280;46967;48.876;2.136;2022-08-19T00:32:52;101426.41;;;19.39;73.89
61086;BME280;46967;48.876;2.136;2022-08-19T00:35:19;101428.09;;;19.40;73.40
61086;BME280;46967;48.876;2.136;2022-08-19T00:37:44;101428.16;;;19.38;73.73
61086;BME280;46967;48.876;2.136;2022-08-19T00:40:11;101425.66;;;19.36;73.73
61086;BME280;46967;48.876;2.136;2022-08-19T00:42:37;101422.41;;;19.31;73.87
61086;BME280;46967;48.876;2.136;2022-08-19T00:45:10;101426.09;;;19.29;73.79
61086;BME280;46967;48.876;2.136;2022-08-19T00:47:36;101415.03;;;19.22;74.33
61086;BME280;46967;48.876;2.136;2022-08-19T00:50:02;101416.84;;;19.22;73.94
61086;BME280;46967;48.876;2.136;2022-08-19T00:52:33;101418.38;;;19.26;74.23
61086;BME280;46967;48.876;2.136;2022-08-19T00:55:00;101416.00;;;19.21;74.21
61086;BME280;46967;48.876;2.136;2022-08-19T00:57:31;101423.09;;;19.19;73.92
61086;BME280;46967;48.876;2.136;2022-08-19T00:59:58;101421.50;;;19.16;74.41
61086;BME280;46967;48.876;2.136;2022-08-19T01:02:25;101418.47;;;19.08;74.14
61086;BME280;46967;48.876;2.136;2022-08-19T01:04:52;101423.81;;;19.07;74.37
61086;BME280;46967;48.876;2.136;2022-08-19T01:07:17;101420.47;;;19.03;74.63
61086;BME280;46967;48.876;2.136;2022-08-19T01:09:43;101419.97;;;18.96;74.96
61086;BME280;46967;48.876;2.136;2022-08-19T01:12:09;101423.41;;;18.98;75.24
61086;BME280;46967;48.876;2.136;2022-08-19T01:14:35;101419.72;;;19.01;75.47
61086;BME280;46967;48.876;2.136;2022-08-19T01:17:02;101421.69;;;18.97;75.43
61086;BME280;46967;48.876;2.136;2022-08-19T01:19:31;101423.03;;;18.89;75.80
61086;BME280;46967;48.876;2.136;2022-08-19T01:22:03;101419.66;;;18.87;75.92
61086;BME280;46967;48.876;2.136;2022-08-19T01:24:31;101419.66;;;18.87;75.75
61086;BME280;46967;48.876;2.136;2022-08-19T01:26:57;101430.66;;;18.93;74.84
61086;BME280;46967;48.876;2.136;2022-08-19T01:29:22;101428.03;;;18.93;74.74
61086;BME280;46967;48.876;2.136;2022-08-19T01:31:47;101434.50;;;18.88;75.16
61086;BME280;46967;48.876;2.136;2022-08-19T01:34:14;101441.06;;;18.79;75.14
61086;BME280;46967;48.876;2.136;2022-08-19T01:36:43;101440.47;;;18.74;75.19
61086;BME280;46967;48.876;2.136;2022-08-19T01:39:16;101438.94;;;18.70;75.44
61086;BME280;46967;48.876;2.136;2022-08-19T01:41:42;101441.81;;;18.65;76.00
61086;BME280;46967;48.876;2.136;2022-08-19T01:44:09;101438.25;;;18.66;75.79
61086;BME280;46967;48.876;2.136;2022-08-19T01:46:35;101440.03;;;18.65;76.22
61086;BME280;46967;48.876;2.136;2022-08-19T01:49:01;101439.47;;;18.76;75.80
61086;BME280;46967;48.876;2.136;2022-08-19T01:51:27;101435.72;;;18.80;75.53
61086;BME280;46967;48.876;2.136;2022-08-19T01:53:53;101441.81;;;18.81;75.61
61086;BME280;46967;48.876;2.136;2022-08-19T01:56:18;101439.06;;;18.84;75.43
61086;BME280;46967;48.876;2.136;2022-08-19T01:58:48;101440.06;;;18.81;75.81
61086;BME280;46967;48.876;2.136;2022-08-19T02:01:15;101435.88;;;18.77;75.72
61086;BME280;46967;48.876;2.136;2022-08-19T02:03:41;101435.28;;;18.72;76.41
61086;BME280;46967;48.876;2.136;2022-08-19T02:06:06;101437.56;;;18.62;76.10
61086;BME280;46967;48.876;2.136;2022-08-19T02:08:36;101441.28;;;18.58;76.58
61086;BME280;46967;48.876;2.136;2022-08-19T02:11:01;101432.25;;;18.64;76.32
61086;BME280;46967;48.876;2.136;2022-08-19T02:13:28;101433.75;;;18.68;76.70
61086;BME280;46967;48.876;2.136;2022-08-19T02:15:53;101434.22;;;18.76;76.09
61086;BME280;46967;48.876;2.136;2022-08-19T02:18:18;101438.44;;;18.79;75.83
61086;BME280;46967;48.876;2.136;2022-08-19T02:20:44;101439.31;;;18.79;76.57
61086;BME280;46967;48.876;2.136;2022-08-19T02:23:13;101447.53;;;18.73;76.42
61086;BME280;46967;48.876;2.136;2022-08-19T02:25:38;101443.94;;;18.74;76.02
61086;BME280;46967;48.876;2.136;2022-08-19T02:28:04;101440.56;;;18.72;76.43
61086;BME280;46967;48.876;2.136;2022-08-19T02:30:30;101442.25;;;18.73;76.41
61086;BME280;46967;48.876;2.136;2022-08-19T02:32:55;101439.47;;;18.76;76.44
61086;BME280;46967;48.876;2.136;2022-08-19T02:35:21;101441.06;;;18.79;76.01
61086;BME280;46967;48.876;2.136;2022-08-19T02:37:47;101439.47;;;18.76;76.23
61086;BME280;46967;48.876;2.136;2022-08-19T02:40:32;101435.06;;;18.77;75.69
61086;BME280;46967;48.876;2.136;2022-08-19T02:43:04;101442.19;;;18.75;76.07
61086;BME280;46967;48.876;2.136;2022-08-19T02:45:36;101444.97;;;18.72;75.88
61086;BME280;46967;48.876;2.136;2022-08-19T02:48:02;101443.34;;;18.69;76.01
61086;BME280;46967;48.876;2.136;2022-08-19T02:50:29;101438.59;;;18.76;75.63
61086;BME280;46967;48.876;2.136;2022-08-19T02:52:54;101434.81;;;18.81;75.79
61086;BME280;46967;48.876;2.136;2022-08-19T02:55:19;101440.06;;;18.81;75.77
61086;BME280;46967;48.876;2.136;2022-08-19T02:57:46;101433.09;;;18.80;75.67
61086;BME280;46967;48.876;2.136;2022-08-19T03:00:12;101436.56;;;18.81;75.35
61086;BME280;46967;48.876;2.136;2022-08-19T03:02:38;101441.81;;;18.81;75.28
61086;BME280;46967;48.876;2.136;2022-08-19T03:05:07;101448.88;;;18.80;75.02
61086;BME280;46967;48.876;2.136;2022-08-19T03:07:32;101438.19;;;18.83;75.02
61086;BME280;46967;48.876;2.136;2022-08-19T03:09:58;101445.19;;;18.85;75.05
61086;BME280;46967;48.876;2.136;2022-08-19T03:12:23;101446.03;;;18.85;75.30
61086;BME280;46967;48.876;2.136;2022-08-19T03:14:49;101453.06;;;18.85;75.81
61086;BME280;46967;48.876;2.136;2022-08-19T03:17:14;101453.22;;;18.81;74.98
61086;BME280;46967;48.876;2.136;2022-08-19T03:19:40;101454.97;;;18.81;75.61
61086;BME280;46967;48.876;2.136;2022-08-19T03:22:05;101449.03;;;18.77;75.54
61086;BME280;46967;48.876;2.136;2022-08-19T03:24:31;101440.44;;;18.58;75.92
61086;BME280;46967;48.876;2.136;2022-08-19T03:26:57;101430.53;;;18.63;76.13
61086;BME280;46967;48.876;2.136;2022-08-19T03:29:25;101431.28;;;18.65;76.01
61086;BME280;46967;48.876;2.136;2022-08-19T03:31:50;101433.06;;;18.64;76.42
61086;BME280;46967;48.876;2.136;2022-08-19T03:34:23;101439.25;;;18.63;76.79
61086;BME280;46967;48.876;2.136;2022-08-19T03:36:52;101441.88;;;18.63;76.96
61086;BME280;46967;48.876;2.136;2022-08-19T03:39:19;101436.97;;;18.57;77.41
61086;BME280;46967;48.876;2.136;2022-08-19T03:41:46;101438.66;;;18.58;77.05
61086;BME280;46967;48.876;2.136;2022-08-19T03:44:17;101432.56;;;18.58;77.30
61086;BME280;46967;48.876;2.136;2022-08-19T03:46:43;101435.13;;;18.59;77.11
61086;BME280;46967;48.876;2.136;2022-08-19T03:49:08;101437.97;;;18.55;77.03
61086;BME280;46967;48.876;2.136;2022-08-19T03:51:36;101435.34;;;18.55;76.75
61086;BME280;46967;48.876;2.136;2022-08-19T03:54:05;101430.63;;;18.61;76.75
61086;BME280;46967;48.876;2.136;2022-08-19T03:56:34;101432.47;;;18.59;76.16
61086;BME280;46967;48.876;2.136;2022-08-19T03:59:00;101436.53;;;18.49;76.54
61086;BME280;46967;48.876;2.136;2022-08-19T04:01:28;101433.88;;;18.49;76.49
61086;BME280;46967;48.876;2.136;2022-08-19T04:03:55;101441.28;;;18.58;76.19
61086;BME280;46967;48.876;2.136;2022-08-19T04:06:27;101435.63;;;18.66;76.50
61086;BME280;46967;48.876;2.136;2022-08-19T04:08:54;101435.47;;;18.69;76.64
61086;BME280;46967;48.876;2.136;2022-08-19T04:11:24;101433.50;;;18.73;76.08
61086;BME280;46967;48.876;2.136;2022-08-19T04:13:51;101421.16;;;18.75;75.77
61086;BME280;46967;48.876;2.136;2022-08-19T04:16:18;101432.16;;;18.81;75.81
61086;BME280;46967;48.876;2.136;2022-08-19T04:18:43;101427.75;;;18.82;75.67
61086;BME280;46967;48.876;2.136;2022-08-19T04:21:16;101430.75;;;18.92;75.23
61086;BME280;46967;48.876;2.136;2022-08-19T04:23:41;101421.56;;;18.83;75.12
61086;BME280;46967;48.876;2.136;2022-08-19T04:26:07;101426.16;;;18.79;75.44
61086;BME280;46967;48.876;2.136;2022-08-19T04:28:37;101429.53;;;18.81;75.71
61086;BME280;46967;48.876;2.136;2022-08-19T04:31:02;101421.16;;;18.75;75.65
61086;BME280;46967;48.876;2.136;2022-08-19T04:33:27;101429.78;;;18.77;75.62
61086;BME280;46967;48.876;2.136;2022-08-19T04:35:53;101435.63;;;18.82;75.59
61086;BME280;46967;48.876;2.136;2022-08-19T04:38:20;101438.13;;;18.85;75.20
61086;BME280;46967;48.876;2.136;2022-08-19T04:40:49;101446.94;;;18.84;75.21
61086;BME280;46967;48.876;2.136;2022-08-19T04:43:36;101442.38;;;18.88;75.25
61086;BME280;46967;48.876;2.136;2022-08-19T04:46:11;101437.97;;;18.88;74.91
61086;BME280;46967;48.876;2.136;2022-08-19T04:48:37;101447.88;;;18.83;75.23
61086;BME280;46967;48.876;2.136;2022-08-19T04:51:07;101445.94;;;18.87;74.93
61086;BME280;46967;48.876;2.136;2022-08-19T04:53:35;101458.34;;;18.85;75.00
61086;BME280;46967;48.876;2.136;2022-08-19T04:56:05;101454.28;;;18.77;75.41
61086;BME280;46967;48.876;2.136;2022-08-19T04:58:32;101461.41;;;18.75;75.64
61086;BME280;46967;48.876;2.136;2022-08-19T05:00:58;101464.72;;;18.79;75.24
61086;BME280;46967;48.876;2.136;2022-08-19T05:03:25;101457.72;;;18.62;76.02
61086;BME280;46967;48.876;2.136;2022-08-19T05:05:51;101465.28;;;18.68;75.83
61086;BME280;46967;48.876;2.136;2022-08-19T05:08:20;101469.19;;;18.61;76.33
61086;BME280;46967;48.876;2.136;2022-08-19T05:10:50;101464.69;;;18.63;76.36
61086;BME280;46967;48.876;2.136;2022-08-19T05:13:18;101469.59;;;18.53;76.59
61086;BME280;46967;48.876;2.136;2022-08-19T05:15:43;101472.16;;;18.55;76.36
61086;BME280;46967;48.876;2.136;2022-08-19T05:18:10;101471.63;;;18.48;76.51
61086;BME280;46967;48.876;2.136;2022-08-19T05:20:54;101474.25;;;18.48;76.42
61086;BME280;46967;48.876;2.136;2022-08-19T05:23:38;101466.47;;;18.46;76.59
61086;BME280;46967;48.876;2.136;2022-08-19T05:26:04;101471.47;;;18.51;76.48
61086;BME280;46967;48.876;2.136;2022-08-19T05:28:30;101465.03;;;18.57;76.49
61086;BME280;46967;48.876;2.136;2022-08-19T05:30:56;101469.63;;;18.69;75.66
61086;BME280;46967;48.876;2.136;2022-08-19T05:33:22;101475.94;;;18.49;76.95
61086;BME280;46967;48.876;2.136;2022-08-19T05:35:48;101477.31;;;18.56;76.83
61086;BME280;46967;48.876;2.136;2022-08-19T05:38:16;101469.13;;;18.62;77.23
61086;BME280;46967;48.876;2.136;2022-08-19T05:40:41;101471.78;;;18.45;78.19
61086;BME280;46967;48.876;2.136;2022-08-19T05:43:10;101479.22;;;18.37;78.97
61086;BME280;46967;48.876;2.136;2022-08-19T05:45:39;101476.41;;;18.57;78.26
61086;BME280;46967;48.876;2.136;2022-08-19T05:48:05;101478.88;;;18.60;78.32
61086;BME280;46967;48.876;2.136;2022-08-19T05:50:30;101477.25;;;18.58;78.40
61086;BME280;46967;48.876;2.136;2022-08-19T05:52:56;101482.78;;;18.69;78.05
61086;BME280;46967;48.876;2.136;2022-08-19T05:55:21;101481.19;;;18.82;78.06
61086;BME280;46967;48.876;2.136;2022-08-19T05:57:47;101488.16;;;18.83;77.75
61086;BME280;46967;48.876;2.136;2022-08-19T06:00:13;101480.97;;;18.87;77.93
61086;BME280;46967;48.876;2.136;2022-08-19T06:02:39;101484.97;;;18.94;77.37
61086;BME280;46967;48.876;2.136;2022-08-19T06:05:06;101484.56;;;19.02;77.38
61086;BME280;46967;48.876;2.136;2022-08-19T06:07:37;101488.53;;;19.09;77.20
61086;BME280;46967;48.876;2.136;2022-08-19T06:10:04;101482.03;;;19.16;76.79
61086;BME280;46967;48.876;2.136;2022-08-19T06:12:31;101483.81;;;19.16;76.79
61086;BME280;46967;48.876;2.136;2022-08-19T06:15:00;101491.63;;;19.17;77.27
61086;BME280;46967;48.876;2.136;2022-08-19T06:17:25;101488.88;;;19.03;77.83
61086;BME280;46967;48.876;2.136;2022-08-19T06:19:51;101489.56;;;19.07;77.79
61086;BME280;46967;48.876;2.136;2022-08-19T06:22:17;101496.00;;;19.01;78.26
61086;BME280;46967;48.876;2.136;2022-08-19T06:24:42;101494.84;;;19.07;77.91
61086;BME280;46967;48.876;2.136;2022-08-19T06:27:08;101492.19;;;19.07;77.70
61086;BME280;46967;48.876;2.136;2022-08-19T06:29:33;101498.63;;;19.01;78.21
61086;BME280;46967;48.876;2.136;2022-08-19T06:32:01;101497.28;;;19.10;77.97
61086;BME280;46967;48.876;2.136;2022-08-19T06:34:30;101499.31;;;19.05;78.41
61086;BME280;46967;48.876;2.136;2022-08-19T06:36:57;101497.28;;;19.10;78.37
61086;BME280;46967;48.876;2.136;2022-08-19T06:39:28;101497.88;;;19.15;78.11
61086;BME280;46967;48.876;2.136;2022-08-19T06:41:58;101501.09;;;19.20;77.89
61086;BME280;46967;48.876;2.136;2022-08-19T06:44:25;101493.72;;;19.27;78.18
61086;BME280;46967;48.876;2.136;2022-08-19T06:46:52;101498.06;;;19.28;77.86
61086;BME280;46967;48.876;2.136;2022-08-19T06:49:18;101500.59;;;19.13;78.55
61086;BME280;46967;48.876;2.136;2022-08-19T06:51:46;101502.97;;;19.18;78.71
61086;BME280;46967;48.876;2.136;2022-08-19T06:54:14;101504.94;;;19.30;78.13
61086;BME280;46967;48.876;2.136;2022-08-19T06:56:39;101502.47;;;19.27;78.37
61086;BME280;46967;48.876;2.136;2022-08-19T06:59:11;101503.81;;;19.34;78.34
61086;BME280;46967;48.876;2.136;2022-08-19T07:01:49;101498.38;;;19.22;78.73
61086;BME280;46967;48.876;2.136;2022-08-19T07:04:16;101507.81;;;19.26;78.55
61086;BME280;46967;48.876;2.136;2022-08-19T07:06:43;101511.78;;;19.33;78.68
61086;BME280;46967;48.876;2.136;2022-08-19T07:09:10;101507.66;;;19.45;77.84
61086;BME280;46967;48.876;2.136;2022-08-19T07:11:36;101510.69;;;19.53;77.77
61086;BME280;46967;48.876;2.136;2022-08-19T07:14:03;101515.38;;;19.48;78.10
61086;BME280;46967;48.876;2.136;2022-08-19T07:16:29;101513.50;;;19.50;78.12
61086;BME280;46967;48.876;2.136;2022-08-19T07:18:54;101514.50;;;19.47;78.00
61086;BME280;46967;48.876;2.136;2022-08-19T07:21:26;101509.94;;;19.51;78.24
61086;BME280;46967;48.876;2.136;2022-08-19T07:23:54;101528.19;;;19.54;78.15
61086;BME280;46967;48.876;2.136;2022-08-19T07:26:25;101511.84;;;19.63;77.47
61086;BME280;46967;48.876;2.136;2022-08-19T07:28:51;101512.81;;;19.62;77.52
61086;BME280;46967;48.876;2.136;2022-08-19T07:31:20;101517.13;;;19.63;77.50
61086;BME280;46967;48.876;2.136;2022-08-19T07:33:47;101512.97;;;19.75;76.73
61086;BME280;46967;48.876;2.136;2022-08-19T07:36:15;101512.28;;;19.71;76.69
61086;BME280;46967;48.876;2.136;2022-08-19T07:38:45;101523.09;;;19.67;77.34
61086;BME280;46967;48.876;2.136;2022-08-19T07:41:18;101519.31;;;19.71;77.06
61086;BME280;46967;48.876;2.136;2022-08-19T07:43:46;101516.72;;;19.55;77.57
61086;BME280;46967;48.876;2.136;2022-08-19T07:46:12;101514.31;;;19.66;77.68
61086;BME280;46967;48.876;2.136;2022-08-19T07:48:40;101512.91;;;19.77;77.32
61086;BME280;46967;48.876;2.136;2022-08-19T07:51:06;101517.56;;;19.87;76.63
61086;BME280;46967;48.876;2.136;2022-08-19T07:53:35;101515.13;;;19.99;75.91
61086;BME280;46967;48.876;2.136;2022-08-19T07:56:01;101510.72;;;19.99;76.09
61086;BME280;46967;48.876;2.136;2022-08-19T07:58:39;101519.38;;;20.01;75.87
61086;BME280;46967;48.876;2.136;2022-08-19T08:01:08;101513.75;;;20.07;75.81
61086;BME280;46967;48.876;2.136;2022-08-19T08:03:36;101517.34;;;20.06;75.41
61086;BME280;46967;48.876;2.136;2022-08-19T08:06:20;101514.44;;;20.11;75.63
61086;BME280;46967;48.876;2.136;2022-08-19T08:09:05;101516.19;;;20.11;75.81
61086;BME280;46967;48.876;2.136;2022-08-19T08:11:38;101512.91;;;20.07;75.75
61086;BME280;46967;48.876;2.136;2022-08-19T08:14:05;101517.50;;;20.03;75.87
61086;BME280;46967;48.876;2.136;2022-08-19T08:16:35;101514.44;;;20.11;76.01
61086;BME280;46967;48.876;2.136;2022-08-19T08:19:02;101512.91;;;20.07;75.63
61086;BME280;46967;48.876;2.136;2022-08-19T08:21:28;101520.31;;;20.00;75.69
61086;BME280;46967;48.876;2.136;2022-08-19T08:23:53;101518.34;;;20.04;75.54
61086;BME280;46967;48.876;2.136;2022-08-19T08:26:20;101522.09;;;20.00;75.42
61086;BME280;46967;48.876;2.136;2022-08-19T08:28:46;101522.34;;;20.11;75.30
61086;BME280;46967;48.876;2.136;2022-08-19T08:31:12;101518.94;;;20.23;75.03
61086;BME280;46967;48.876;2.136;2022-08-19T08:33:37;101519.47;;;20.44;74.26
61086;BME280;46967;48.876;2.136;2022-08-19T08:36:07;101523.06;;;20.58;73.76
61086;BME280;46967;48.876;2.136;2022-08-19T08:38:32;101529.34;;;20.55;73.28
61086;BME280;46967;48.876;2.136;2022-08-19T08:43:54;101537.75;;;20.48;73.72
61086;BME280;46967;48.876;2.136;2022-08-19T08:46:24;101531.81;;;20.58;73.96
61086;BME280;46967;48.876;2.136;2022-08-19T08:48:53;101530.53;;;20.66;73.49
61086;BME280;46967;48.876;2.136;2022-08-19T08:51:27;101524.88;;;20.72;72.76
61086;BME280;46967;48.876;2.136;2022-08-19T08:53:54;101522.91;;;20.90;71.56
61086;BME280;46967;48.876;2.136;2022-08-19T08:56:21;101530.91;;;20.88;72.44
61086;BME280;46967;48.876;2.136;2022-08-19T08:59:39;101531.38;;;20.95;71.48
61086;BME280;46967;48.876;2.136;2022-08-19T09:01:45;101525.81;;;20.99;71.01
61086;BME280;46967;48.876;2.136;2022-08-19T09:04:11;101525.91;;;20.98;71.22
61086;BME280;46967;48.876;2.136;2022-08-19T09:14:45;101521.16;;;21.32;69.92
61086;BME280;46967;48.876;2.136;2022-08-19T09:17:13;101521.06;;;21.33;69.64
61086;BME280;46967;48.876;2.136;2022-08-19T09:22:18;101521.94;;;21.47;69.31
61086;BME280;46967;48.876;2.136;2022-08-19T09:24:48;101515.28;;;21.41;69.30
61086;BME280;46967;48.876;2.136;2022-08-19T09:27:14;101516.84;;;21.58;68.83
61086;BME280;46967;48.876;2.136;2022-08-19T09:29:40;101513.81;;;21.64;68.76
61086;BME280;46967;48.876;2.136;2022-08-19T09:32:05;101508.94;;;21.98;67.22
61086;BME280;46967;48.876;2.136;2022-08-19T09:34:32;101507.84;;;21.88;67.41
61086;BME280;46967;48.876;2.136;2022-08-19T09:36:58;101511.34;;;22.01;67.61
61086;BME280;46967;48.876;2.136;2022-08-19T09:39:25;101512.63;;;21.96;67.83
61086;BME280;46967;48.876;2.136;2022-08-19T09:41:50;101511.97;;;21.79;67.63
61086;BME280;46967;48.876;2.136;2022-08-19T09:44:16;101518.94;;;21.93;67.68
61086;BME280;46967;48.876;2.136;2022-08-19T09:46:41;101520.44;;;21.97;67.43
61086;BME280;46967;48.876;2.136;2022-08-19T09:49:07;101527.44;;;21.98;67.44
61086;BME280;46967;48.876;2.136;2022-08-19T09:51:32;101518.88;;;22.07;67.39
61086;BME280;46967;48.876;2.136;2022-08-19T09:54:00;101519.19;;;22.03;66.80
61086;BME280;46967;48.876;2.136;2022-08-19T09:56:27;101518.03;;;22.07;66.79
61086;BME280;46967;48.876;2.136;2022-08-19T09:58:53;101513.72;;;22.19;66.59
61086;BME280;46967;48.876;2.136;2022-08-19T10:01:25;101506.78;;;22.31;66.66
61086;BME280;46967;48.876;2.136;2022-08-19T10:03:54;101507.94;;;22.39;65.75
61086;BME280;46967;48.876;2.136;2022-08-19T10:06:21;101505.75;;;22.33;65.84
61086;BME280;46967;48.876;2.136;2022-08-19T10:08:48;101504.13;;;22.43;66.18
61086;BME280;46967;48.876;2.136;2022-08-19T10:11:14;101502.78;;;22.51;65.99
61086;BME280;46967;48.876;2.136;2022-08-19T10:13:41;101506.47;;;22.61;65.76
61086;BME280;46967;48.876;2.136;2022-08-19T10:16:13;101501.66;;;22.79;65.56
61086;BME280;46967;48.876;2.136;2022-08-19T10:18:40;101482.22;;;23.17;64.01
61086;BME280;46967;48.876;2.136;2022-08-19T10:21:29;101490.75;;;23.33;63.65
61086;BME280;46967;48.876;2.136;2022-08-19T10:23:56;101491.81;;;23.55;62.05
61086;BME280;46967;48.876;2.136;2022-08-19T10:26:28;101491.22;;;23.51;63.44
61086;BME280;46967;48.876;2.136;2022-08-19T10:28:54;101485.00;;;23.64;62.82
61086;BME280;46967;48.876;2.136;2022-08-19T10:31:31;101484.44;;;23.72;62.28
61086;BME280;46967;48.876;2.136;2022-08-19T10:33:57;101487.53;;;23.65;62.71
61086;BME280;46967;48.876;2.136;2022-08-19T10:36:26;101482.59;;;23.61;62.45
61086;BME280;46967;48.876;2.136;2022-08-19T10:38:53;101484.09;;;23.52;61.78
61086;BME280;46967;48.876;2.136;2022-08-19T10:41:24;101492.63;;;23.44;61.82
61086;BME280;46967;48.876;2.136;2022-08-19T10:43:54;101489.88;;;23.46;62.13
61086;BME280;46967;48.876;2.136;2022-08-19T10:46:22;101478.78;;;23.52;62.55
61086;BME280;46967;48.876;2.136;2022-08-19T10:48:49;101482.72;;;23.70;62.17
61086;BME280;46967;48.876;2.136;2022-08-19T10:51:15;101489.34;;;23.65;62.62
61086;BME280;46967;48.876;2.136;2022-08-19T10:54:00;101485.78;;;23.53;61.99
61086;BME280;46967;48.876;2.136;2022-08-19T10:56:26;101483.25;;;23.51;61.94
61086;BME280;46967;48.876;2.136;2022-08-19T10:59:10;101477.97;;;23.27;62.22
61086;BME280;46967;48.876;2.136;2022-08-19T11:01:37;101479.03;;;23.25;63.07
61086;BME280;46967;48.876;2.136;2022-08-19T11:04:04;101476.72;;;23.20;63.30
61086;BME280;46967;48.876;2.136;2022-08-19T11:06:31;101480.44;;;23.18;63.17
61086;BME280;46967;48.876;2.136;2022-08-19T11:08:57;101484.75;;;23.19;62.70
61086;BME280;46967;48.876;2.136;2022-08-19T11:11:23;101487.75;;;23.14;63.22
61086;BME280;46967;48.876;2.136;2022-08-19T11:13:49;101484.47;;;23.10;63.70
61086;BME280;46967;48.876;2.136;2022-08-19T11:16:18;101483.22;;;23.03;63.00
61086;BME280;46967;48.876;2.136;2022-08-19T11:18:49;101475.28;;;23.03;63.09
61086;BME280;46967;48.876;2.136;2022-08-19T11:21:18;101475.22;;;22.92;63.90
61086;BME280;46967;48.876;2.136;2022-08-19T11:23:46;101473.00;;;22.86;63.46
61086;BME280;46967;48.876;2.136;2022-08-19T11:26:13;101479.56;;;22.80;63.58
61086;BME280;46967;48.876;2.136;2022-08-19T11:28:39;101472.78;;;22.76;64.25
61086;BME280;46967;48.876;2.136;2022-08-19T11:31:13;101476.72;;;22.70;64.96
61086;BME280;46967;48.876;2.136;2022-08-19T11:33:39;101475.56;;;22.61;64.15
61086;BME280;46967;48.876;2.136;2022-08-19T11:36:05;101469.97;;;22.53;64.14
61086;BME280;46967;48.876;2.136;2022-08-19T11:38:30;101473.38;;;22.55;64.54
61086;BME280;46967;48.876;2.136;2022-08-19T11:41:00;101482.34;;;22.40;65.06
61086;BME280;46967;48.876;2.136;2022-08-19T11:43:26;101483.31;;;22.39;64.90
61086;BME280;46967;48.876;2.136;2022-08-19T11:45:55;101485.84;;;22.40;65.29
61086;BME280;46967;48.876;2.136;2022-08-19T11:48:21;101480.66;;;22.39;65.15
61086;BME280;46967;48.876;2.136;2022-08-19T11:50:51;101485.94;;;22.39;65.52
61086;BME280;46967;48.876;2.136;2022-08-19T11:53:18;101480.44;;;22.42;65.28
61086;BME280;46967;48.876;2.136;2022-08-19T11:55:45;101485.63;;;22.43;65.21
61086;BME280;46967;48.876;2.136;2022-08-19T11:58:12;101485.09;;;22.51;64.61
61086;BME280;46967;48.876;2.136;2022-08-19T12:00:38;101487.84;;;22.50;64.37
61086;BME280;46967;48.876;2.136;2022-08-19T12:03:04;101489.44;;;22.52;65.11
61086;BME280;46967;48.876;2.136;2022-08-19T12:05:30;101484.59;;;22.46;65.28
61086;BME280;46967;48.876;2.136;2022-08-19T12:07:55;101485.53;;;22.45;65.31
61086;BME280;46967;48.876;2.136;2022-08-19T12:10:22;101484.47;;;22.48;65.14
61086;BME280;46967;48.876;2.136;2022-08-19T12:12:47;101484.03;;;22.41;64.69
61086;BME280;46967;48.876;2.136;2022-08-19T12:15:13;101487.75;;;22.51;64.72
61086;BME280;46967;48.876;2.136;2022-08-19T12:17:40;101478.66;;;22.55;64.90
61086;BME280;46967;48.876;2.136;2022-08-19T12:20:08;101489.00;;;22.58;64.92
61086;BME280;46967;48.876;2.136;2022-08-19T12:22:34;101481.41;;;22.54;64.46
61086;BME280;46967;48.876;2.136;2022-08-19T12:25:00;101481.19;;;22.44;64.70
61086;BME280;46967;48.876;2.136;2022-08-19T12:27:26;101481.63;;;22.51;64.41
61086;BME280;46967;48.876;2.136;2022-08-19T12:29:51;101485.41;;;22.59;64.60
61086;BME280;46967;48.876;2.136;2022-08-19T12:32:16;101494.75;;;22.52;64.42
61086;BME280;46967;48.876;2.136;2022-08-19T12:34:42;101486.44;;;22.57;64.64
61086;BME280;46967;48.876;2.136;2022-08-19T12:37:08;101487.50;;;22.67;64.53
61086;BME280;46967;48.876;2.136;2022-08-19T12:39:38;101484.34;;;22.75;64.53
61086;BME280;46967;48.876;2.136;2022-08-19T12:42:04;101482.81;;;22.84;64.21
61086;BME280;46967;48.876;2.136;2022-08-19T12:44:30;101483.47;;;22.87;64.01
61086;BME280;46967;48.876;2.136;2022-08-19T12:46:57;101475.81;;;22.95;63.85
61086;BME280;46967;48.876;2.136;2022-08-19T12:49:23;101469.66;;;22.95;63.20
61086;BME280;46967;48.876;2.136;2022-08-19T12:51:48;101470.31;;;22.98;63.28
61086;BME280;46967;48.876;2.136;2022-08-19T12:54:14;101463.31;;;23.10;62.98
61086;BME280;46967;48.876;2.136;2022-08-19T12:56:39;101470.38;;;23.23;62.60
61086;BME280;46967;48.876;2.136;2022-08-19T12:59:06;101467.38;;;23.27;61.84
61086;BME280;46967;48.876;2.136;2022-08-19T13:01:33;101463.94;;;23.38;61.62
61086;BME280;46967;48.876;2.136;2022-08-19T13:03:59;101459.31;;;23.53;61.52
61086;BME280;46967;48.876;2.136;2022-08-19T13:06:25;101460.81;;;23.68;61.10